Time;durP1;ratioP1;P1;durP2;ratioP2;P2;SDS_P1;SDS_P2;PMS_P1;PMS_P2;Temp;Humidity;BMP_temperature;BMP_pressure;BME280_temperature;BME280_humidity;BME280_pressure;Samples;Min_cycle;Max_cycle;Signal;HPM_P1;HPM_P2
2023/02/10 00:01:07;;;;;;;59.03;36.90;;;3.60;99.90;;;;;;5048322;28;20812;-70
2023/02/10 00:03:36;;;;;;;57.73;36.57;;;3.60;99.90;;;;;;5052556;28;21020;-70
2023/02/10 00:06:04;;;;;;;58.73;35.70;;;3.60;99.90;;;;;;5057302;28;20467;-73
2023/02/10 00:08:31;;;;;;;55.90;37.70;;;3.60;99.90;;;;;;5055927;28;20471;-68
2023/02/10 00:10:59;;;;;;;57.60;35.90;;;3.60;99.90;;;;;;5057287;28;20486;-70
2023/02/10 00:13:26;;;;;;;54.10;36.67;;;3.60;99.90;;;;;;5055024;28;20467;-71
2023/02/10 00:15:54;;;;;;;49.47;35.30;;;3.60;99.90;;;;;;5049278;28;20468;-71
2023/02/10 00:18:21;;;;;;;54.20;35.67;;;3.70;99.90;;;;;;5043873;28;20463;-73
2023/02/10 00:20:50;;;;;;;56.47;37.53;;;3.80;99.90;;;;;;5059706;28;20466;-68
2023/02/10 00:23:17;;;;;;;60.23;36.53;;;3.80;99.90;;;;;;5060457;28;20607;-72
2023/02/10 00:25:44;;;;;;;51.43;33.90;;;3.60;99.90;;;;;;5060150;28;20977;-71
2023/02/10 00:28:11;;;;;;;55.33;35.47;;;3.60;99.90;;;;;;5053678;28;20463;-74
2023/02/10 00:30:39;;;;;;;58.43;34.87;;;3.60;99.90;;;;;;5059319;28;20471;-69
2023/02/10 00:33:06;;;;;;;52.83;33.20;;;3.60;99.90;;;;;;5050372;28;20473;-71
2023/02/10 00:35:33;;;;;;;55.20;35.07;;;3.50;99.90;;;;;;5054141;28;20458;-72
2023/02/10 00:38:01;;;;;;;57.03;35.60;;;3.60;99.90;;;;;;5060299;28;20459;-73
2023/02/10 00:40:28;;;;;;;51.80;35.33;;;3.60;99.90;;;;;;5058742;28;20470;-72
2023/02/10 00:42:56;;;;;;;53.67;36.33;;;3.60;99.90;;;;;;5051824;28;21004;-69
2023/02/10 00:45:23;;;;;;;59.23;34.90;;;3.50;99.90;;;;;;5058792;28;20464;-68
2023/02/10 00:47:51;;;;;;;57.40;35.67;;;3.60;99.90;;;;;;5051806;28;20495;-72
2023/02/10 00:50:18;;;;;;;59.20;35.13;;;3.60;99.90;;;;;;5057155;28;20555;-70
2023/02/10 00:52:45;;;;;;;54.50;35.67;;;3.70;99.90;;;;;;5063809;28;20454;-70
2023/02/10 00:55:13;;;;;;;49.80;34.00;;;3.70;99.90;;;;;;5056886;28;20471;-70
2023/02/10 00:57:40;;;;;;;61.10;35.77;;;3.80;99.90;;;;;;5058566;28;20487;-68
2023/02/10 01:00:08;;;;;;;62.50;39.00;;;3.70;99.90;;;;;;5062349;28;20833;-73
2023/02/10 01:02:35;;;;;;;61.20;38.23;;;3.80;99.90;;;;;;5065309;28;20466;-73
2023/02/10 01:05:03;;;;;;;61.33;37.97;;;3.70;99.90;;;;;;5057424;28;20517;-71
2023/02/10 01:07:30;;;;;;;46.43;34.27;;;3.70;99.90;;;;;;5051510;28;20493;-73
2023/02/10 01:09:56;;;;;;;58.90;35.30;;;3.80;99.90;;;;;;5052173;28;21293;-71
2023/02/10 01:12:25;;;;;;;54.53;35.00;;;3.80;99.90;;;;;;5063747;28;20456;-73
2023/02/10 01:14:51;;;;;;;61.47;35.90;;;3.90;99.90;;;;;;5054108;28;20881;-70
2023/02/10 01:17:18;;;;;;;63.03;37.80;;;3.80;99.90;;;;;;5052918;28;20464;-71
2023/02/10 01:19:45;;;;;;;67.80;37.90;;;3.80;99.90;;;;;;5054362;28;20470;-71
2023/02/10 01:22:12;;;;;;;50.00;36.23;;;3.80;99.90;;;;;;5057318;28;20471;-68
2023/02/10 01:24:39;;;;;;;52.10;35.47;;;3.70;99.90;;;;;;5058933;28;21039;-73
2023/02/10 01:27:06;;;;;;;56.13;35.53;;;3.70;99.90;;;;;;5054234;28;20990;-73
2023/02/10 01:29:34;;;;;;;58.23;36.17;;;3.70;99.90;;;;;;5052505;28;21276;-71
2023/02/10 01:32:01;;;;;;;59.43;36.90;;;3.70;99.90;;;;;;5064211;28;20455;-72
2023/02/10 01:34:28;;;;;;;51.50;35.87;;;3.60;99.90;;;;;;5055840;28;20470;-70
2023/02/10 01:36:55;;;;;;;54.70;35.37;;;3.60;99.90;;;;;;5051808;28;20837;-71
2023/02/10 01:39:22;;;;;;;57.63;37.40;;;3.50;99.90;;;;;;5057276;28;20455;-69
2023/02/10 01:41:49;;;;;;;65.00;35.40;;;3.50;99.90;;;;;;5051220;28;20496;-72
2023/02/10 01:44:53;;;;;;;58.67;35.27;;;3.50;99.90;;;;;;5058802;28;20495;-68
2023/02/10 01:47:22;;;;;;;50.00;33.67;;;3.50;99.90;;;;;;5054944;28;20459;-70
2023/02/10 01:49:51;;;;;;;54.13;36.67;;;3.50;99.90;;;;;;5049859;28;20471;-71
2023/02/10 01:52:22;;;;;;;48.93;35.27;;;3.60;99.90;;;;;;5055386;28;20468;-71
2023/02/10 01:54:53;;;;;;;48.77;36.47;;;3.60;99.90;;;;;;5054169;28;21072;-70
2023/02/10 01:57:21;;;;;;;58.60;36.70;;;3.60;99.90;;;;;;5057111;28;20463;-70
2023/02/10 01:59:48;;;;;;;62.13;36.57;;;3.70;99.90;;;;;;5055483;28;20467;-72
2023/02/10 02:02:16;;;;;;;54.47;36.07;;;3.70;99.90;;;;;;5067986;28;20484;-71
2023/02/10 02:04:51;;;;;;;50.20;34.50;;;3.80;99.90;;;;;;5061263;28;20489;-70
2023/02/10 02:07:19;;;;;;;52.20;34.37;;;3.80;99.90;;;;;;5056270;28;20532;-71
2023/02/10 02:09:47;;;;;;;51.50;36.30;;;3.70;99.90;;;;;;5049024;28;21110;-70
2023/02/10 02:12:22;;;;;;;57.10;36.60;;;3.80;99.90;;;;;;5060060;28;20460;-71
2023/02/10 02:14:56;;;;;;;54.63;37.43;;;3.80;99.90;;;;;;5055742;28;20494;-69
2023/02/10 02:17:32;;;;;;;62.03;38.20;;;3.80;99.90;;;;;;5060297;28;20973;-70
2023/02/10 02:23:29;;;;;;;55.37;36.50;;;3.90;99.90;;;;;;5061864;28;20840;-69
2023/02/10 02:26:22;;;;;;;58.20;36.57;;;3.90;99.90;;;;;;5056989;28;20974;-70
2023/02/10 02:29:05;;;;;;;54.53;36.03;;;4.00;99.90;;;;;;5059588;28;20462;-70
2023/02/10 02:31:59;;;;;;;57.27;36.97;;;4.00;99.90;;;;;;5063165;28;20474;-71
2023/02/10 02:34:34;;;;;;;57.97;37.40;;;4.10;99.90;;;;;;5060807;28;20512;-71
2023/02/10 02:37:06;;;;;;;54.77;38.77;;;4.10;99.90;;;;;;5050846;28;20480;-72
2023/02/10 02:39:33;;;;;;;55.43;36.93;;;4.20;99.90;;;;;;5056133;28;20490;-72
2023/02/10 02:42:17;;;;;;;66.40;40.30;;;4.10;99.90;;;;;;5056020;28;20491;-71
2023/02/10 02:44:46;;;;;;;57.30;37.10;;;4.10;99.90;;;;;;5052577;28;20492;-70
2023/02/10 02:47:21;;;;;;;54.60;35.97;;;4.10;99.90;;;;;;5061141;28;20466;-73
2023/02/10 02:49:57;;;;;;;61.40;36.07;;;4.10;99.90;;;;;;5053541;28;20467;-71
2023/02/10 02:52:32;;;;;;;61.60;39.00;;;4.10;99.90;;;;;;5054531;28;21001;-69
2023/02/10 02:55:04;;;;;;;67.60;38.77;;;4.00;99.90;;;;;;5054172;28;20472;-70
2023/02/10 02:57:48;;;;;;;63.50;38.50;;;4.10;99.90;;;;;;5059471;28;20466;-70
2023/02/10 03:00:20;;;;;;;54.23;36.87;;;4.00;99.90;;;;;;5059489;28;20949;-68
2023/02/10 03:02:48;;;;;;;54.00;36.33;;;3.90;99.90;;;;;;5059441;28;20479;-68
2023/02/10 03:05:19;;;;;;;55.27;37.47;;;3.90;99.90;;;;;;5050729;28;20494;-73
2023/02/10 03:07:47;;;;;;;62.30;37.70;;;3.80;99.90;;;;;;5055692;28;20690;-72
2023/02/10 03:10:14;;;;;;;51.10;34.07;;;3.70;99.90;;;;;;5055992;28;20875;-71
2023/02/10 03:12:41;;;;;;;57.77;37.90;;;3.50;99.90;;;;;;5055871;28;20466;-72
2023/02/10 03:15:08;;;;;;;62.87;38.63;;;3.40;99.90;;;;;;5056994;28;20810;-68
2023/02/10 03:17:36;;;;;;;55.47;35.53;;;3.30;99.90;;;;;;5052594;28;20832;-70
2023/02/10 03:20:04;;;;;;;54.03;37.70;;;3.30;99.90;;;;;;5050879;28;20823;-71
2023/02/10 03:22:31;;;;;;;54.80;36.77;;;3.10;99.90;;;;;;5056851;28;20802;-72
2023/02/10 03:24:58;;;;;;;64.43;36.50;;;2.90;99.90;;;;;;5052324;28;20487;-73
2023/02/10 03:27:25;;;;;;;55.20;37.33;;;2.60;99.90;;;;;;5052081;28;20476;-68
2023/02/10 03:29:52;;;;;;;52.17;35.17;;;2.50;99.90;;;;;;5054864;28;20474;-73
2023/02/10 03:32:20;;;;;;;50.60;36.23;;;2.40;99.90;;;;;;5058676;28;20463;-69
2023/02/10 03:34:47;;;;;;;56.93;35.03;;;2.30;99.90;;;;;;5051286;28;20470;-71
2023/02/10 03:37:15;;;;;;;56.13;36.30;;;2.20;99.90;;;;;;5053821;28;20483;-71
2023/02/10 03:39:43;;;;;;;63.73;39.03;;;2.10;99.90;;;;;;5049388;28;20469;-69
2023/02/10 03:42:09;;;;;;;63.73;36.40;;;2.10;99.90;;;;;;5057233;28;20495;-70
2023/02/10 03:44:37;;;;;;;58.73;35.47;;;2.10;99.90;;;;;;5053083;28;20482;-73
2023/02/10 03:47:03;;;;;;;55.87;36.57;;;2.00;99.90;;;;;;5056623;28;20459;-71
2023/02/10 03:49:30;;;;;;;55.40;37.97;;;1.90;99.90;;;;;;5055726;28;20458;-70
2023/02/10 03:51:57;;;;;;;52.80;36.90;;;1.90;99.90;;;;;;5050685;28;20462;-72
2023/02/10 03:54:26;;;;;;;63.53;36.93;;;1.90;99.90;;;;;;5055594;28;20525;-72
2023/02/10 03:56:53;;;;;;;52.23;36.10;;;1.90;99.90;;;;;;5058480;28;20455;-70
2023/02/10 03:59:19;;;;;;;57.97;37.70;;;1.80;99.90;;;;;;5058615;28;20463;-73
2023/02/10 04:01:46;;;;;;;58.87;36.40;;;1.70;99.90;;;;;;5065067;28;20482;-69
2023/02/10 04:04:14;;;;;;;54.40;37.80;;;1.60;99.90;;;;;;5060685;28;20935;-71
2023/02/10 04:06:41;;;;;;;54.40;37.50;;;1.50;99.90;;;;;;5058437;28;20482;-70
2023/02/10 04:09:08;;;;;;;63.63;38.73;;;1.50;99.90;;;;;;5062543;28;20463;-70
2023/02/10 04:11:36;;;;;;;74.40;38.17;;;1.50;99.90;;;;;;5050433;28;20482;-71
2023/02/10 04:14:03;;;;;;;59.40;37.67;;;1.50;99.90;;;;;;5054028;28;20455;-71
2023/02/10 04:16:31;;;;;;;59.70;39.03;;;1.50;99.90;;;;;;5051317;28;20484;-72
2023/02/10 04:18:58;;;;;;;58.73;38.87;;;1.40;99.90;;;;;;5058661;28;20470;-71
2023/02/10 04:21:25;;;;;;;52.97;36.33;;;1.30;99.90;;;;;;5056283;28;20473;-69
2023/02/10 04:23:52;;;;;;;61.27;39.10;;;1.20;99.90;;;;;;5054296;28;20467;-69
2023/02/10 04:26:18;;;;;;;61.50;38.33;;;1.10;99.90;;;;;;5050412;28;20459;-69
2023/02/10 04:28:47;;;;;;;49.63;36.00;;;1.10;99.90;;;;;;5060139;28;20473;-70
2023/02/10 04:31:14;;;;;;;61.33;39.93;;;1.00;99.90;;;;;;5057892;28;20977;-71
2023/02/10 04:33:40;;;;;;;68.13;40.07;;;1.00;99.90;;;;;;5057309;28;20512;-70
2023/02/10 04:36:08;;;;;;;51.73;37.83;;;1.00;99.90;;;;;;5059273;28;20473;-71
2023/02/10 04:38:35;;;;;;;61.23;40.27;;;1.00;99.90;;;;;;5058916;28;20459;-71
2023/02/10 04:41:02;;;;;;;55.80;36.03;;;1.00;99.90;;;;;;5058317;28;20493;-68
2023/02/10 04:43:29;;;;;;;63.27;38.73;;;1.00;99.90;;;;;;5054129;28;20500;-71
2023/02/10 04:45:58;;;;;;;54.07;39.57;;;1.00;99.90;;;;;;5054489;28;20897;-68
2023/02/10 04:48:24;;;;;;;55.10;37.70;;;1.00;99.90;;;;;;5057276;28;20494;-72
2023/02/10 04:50:52;;;;;;;63.03;37.50;;;1.00;99.90;;;;;;5059508;28;20464;-72
2023/02/10 04:53:19;;;;;;;67.83;38.70;;;0.90;99.90;;;;;;5055086;28;20490;-69
2023/02/10 04:55:46;;;;;;;51.93;37.40;;;0.70;99.90;;;;;;5056083;28;20462;-71
2023/02/10 04:58:13;;;;;;;56.67;39.27;;;0.50;99.90;;;;;;5056535;28;20460;-72
2023/02/10 05:00:39;;;;;;;60.40;39.57;;;0.40;99.90;;;;;;5063457;28;20469;-71
2023/02/10 05:03:08;;;;;;;56.53;38.93;;;0.30;99.90;;;;;;5061407;28;21004;-71
2023/02/10 05:05:36;;;;;;;57.47;40.53;;;0.30;99.90;;;;;;5050896;28;20861;-71
2023/02/10 05:08:03;;;;;;;63.23;39.43;;;0.40;99.90;;;;;;5058935;28;21070;-70
2023/02/10 05:10:30;;;;;;;61.97;39.70;;;0.40;99.90;;;;;;5062456;28;20475;-71
2023/02/10 05:12:57;;;;;;;58.87;40.70;;;0.50;99.90;;;;;;5052411;28;20487;-70
2023/02/10 05:15:24;;;;;;;65.00;41.40;;;0.50;99.90;;;;;;5059640;28;20835;-71
2023/02/10 05:17:50;;;;;;;57.67;40.73;;;0.60;99.90;;;;;;5056351;28;20467;-69
2023/02/10 05:20:19;;;;;;;73.03;41.50;;;0.60;99.90;;;;;;5058657;28;20460;-71
2023/02/10 05:22:46;;;;;;;63.57;37.77;;;0.70;99.90;;;;;;5062780;28;20963;-69
2023/02/10 05:25:13;;;;;;;70.77;42.50;;;0.70;99.90;;;;;;5053564;28;20964;-69
2023/02/10 05:27:40;;;;;;;64.40;41.00;;;0.80;99.90;;;;;;5061181;28;20455;-69
2023/02/10 05:30:09;;;;;;;66.90;42.93;;;0.80;99.90;;;;;;5061939;28;20462;-68
2023/02/10 05:32:36;;;;;;;56.37;37.10;;;0.80;99.90;;;;;;5049895;28;20456;-69
2023/02/10 05:35:03;;;;;;;61.07;40.13;;;0.90;99.90;;;;;;5058609;28;20559;-70
2023/02/10 05:37:31;;;;;;;63.77;38.90;;;0.90;99.90;;;;;;5055588;28;20813;-71
2023/02/10 05:39:58;;;;;;;67.43;41.87;;;1.00;99.90;;;;;;5059340;28;20467;-71
2023/02/10 05:42:25;;;;;;;66.47;40.77;;;1.00;99.90;;;;;;5051600;28;20487;-70
2023/02/10 05:44:52;;;;;;;68.77;41.07;;;1.10;99.90;;;;;;5050952;28;20478;-70
2023/02/10 05:47:19;;;;;;;65.73;40.50;;;1.10;99.90;;;;;;5064813;28;20559;-71
2023/02/10 05:49:46;;;;;;;71.30;41.83;;;1.10;99.90;;;;;;5063559;28;20467;-69
2023/02/10 05:52:13;;;;;;;69.13;40.77;;;1.20;99.90;;;;;;5058401;28;20467;-69
2023/02/10 05:54:41;;;;;;;71.07;40.87;;;1.20;99.90;;;;;;5051216;28;20965;-69
2023/02/10 05:57:08;;;;;;;65.43;40.00;;;1.20;99.90;;;;;;5057208;28;21009;-72
2023/02/10 05:59:35;;;;;;;59.73;39.33;;;1.20;99.90;;;;;;5052827;28;20957;-69
2023/02/10 06:02:03;;;;;;;68.93;42.00;;;1.10;99.90;;;;;;5061037;28;20479;-69
2023/02/10 06:04:30;;;;;;;67.83;40.60;;;1.10;99.90;;;;;;5055625;28;20548;-71
2023/02/10 06:06:56;;;;;;;67.43;41.60;;;1.10;99.90;;;;;;5055395;28;20954;-69
2023/02/10 06:09:23;;;;;;;67.00;41.80;;;1.10;99.90;;;;;;5054047;28;20471;-71
2023/02/10 06:11:52;;;;;;;75.40;41.20;;;1.00;99.90;;;;;;5059020;28;20467;-72
2023/02/10 06:14:19;;;;;;;65.60;40.20;;;1.00;99.90;;;;;;5054683;28;20464;-69
2023/02/10 06:16:47;;;;;;;71.47;42.43;;;0.90;99.90;;;;;;5057508;28;20460;-70
2023/02/10 06:19:14;;;;;;;63.27;41.97;;;0.80;99.90;;;;;;5050028;28;20542;-70
2023/02/10 06:21:41;;;;;;;62.40;40.20;;;0.70;99.90;;;;;;5055996;28;20466;-71
2023/02/10 06:24:09;;;;;;;61.47;42.77;;;0.70;99.90;;;;;;5057632;28;20977;-68
2023/02/10 06:26:37;;;;;;;82.33;43.30;;;0.70;99.90;;;;;;5053395;28;20993;-69
2023/02/10 06:29:05;;;;;;;64.30;41.47;;;0.70;99.90;;;;;;5049463;28;20946;-70
2023/02/10 06:31:32;;;;;;;62.40;42.63;;;0.70;99.90;;;;;;5060980;28;21043;-70
2023/02/10 06:33:59;;;;;;;64.63;41.47;;;0.70;99.90;;;;;;5061137;28;20929;-72
2023/02/10 06:36:26;;;;;;;73.67;41.30;;;0.70;99.90;;;;;;5048561;28;20881;-72
2023/02/10 06:38:52;;;;;;;64.87;39.70;;;0.70;99.90;;;;;;5051379;28;20554;-72
2023/02/10 06:41:19;;;;;;;62.60;38.90;;;0.70;99.90;;;;;;5055021;28;20482;-72
2023/02/10 06:43:47;;;;;;;66.70;40.43;;;0.70;99.90;;;;;;5060840;28;20463;-70
2023/02/10 06:46:16;;;;;;;63.63;38.40;;;0.70;99.90;;;;;;5063343;28;20811;-71
2023/02/10 06:48:42;;;;;;;64.33;38.90;;;0.50;99.90;;;;;;5050017;28;20461;-71
2023/02/10 06:51:09;;;;;;;62.47;39.07;;;0.30;99.90;;;;;;5056119;28;20474;-71
2023/02/10 06:53:36;;;;;;;59.00;36.87;;;0.10;99.90;;;;;;5055466;28;20472;-72
2023/02/10 06:56:04;;;;;;;69.57;39.93;;;0.00;99.90;;;;;;5058038;28;20559;-73
2023/02/10 06:58:31;;;;;;;61.87;40.40;;;0.00;99.90;;;;;;5057012;28;20455;-71
2023/02/10 07:00:58;;;;;;;72.03;38.97;;;0.00;99.90;;;;;;5056043;28;21055;-71
2023/02/10 07:03:27;;;;;;;63.57;39.00;;;0.10;99.90;;;;;;5053635;28;20475;-71
2023/02/10 07:05:53;;;;;;;71.23;40.73;;;0.10;99.90;;;;;;5058008;28;20522;-73
2023/02/10 07:08:20;;;;;;;76.17;40.70;;;0.20;99.90;;;;;;5051407;28;20470;-72
2023/02/10 07:10:47;;;;;;;64.87;39.47;;;0.40;99.90;;;;;;5053931;28;20455;-73
2023/02/10 07:13:14;;;;;;;73.20;43.70;;;0.40;99.90;;;;;;5059369;28;20470;-71
2023/02/10 07:15:41;;;;;;;73.77;38.77;;;0.50;99.90;;;;;;5053899;28;20843;-72
2023/02/10 07:18:09;;;;;;;60.13;37.77;;;0.60;99.90;;;;;;5052012;28;20471;-72
2023/02/10 07:20:37;;;;;;;63.73;38.90;;;0.60;99.90;;;;;;5048428;28;20836;-72
2023/02/10 07:23:04;;;;;;;64.17;36.07;;;0.60;99.90;;;;;;5046917;28;20514;-70
2023/02/10 07:25:31;;;;;;;56.70;37.33;;;0.70;99.90;;;;;;5051118;28;20848;-72
2023/02/10 07:27:57;;;;;;;60.30;35.30;;;0.70;99.90;;;;;;5054646;28;20956;-73
2023/02/10 07:30:25;;;;;;;60.27;36.93;;;0.80;99.90;;;;;;5054339;28;20469;-70
2023/02/10 07:32:52;;;;;;;58.20;35.73;;;1.00;99.90;;;;;;5055802;28;20822;-72
2023/02/10 07:35:19;;;;;;;77.57;39.93;;;1.00;99.90;;;;;;5051752;28;21065;-72
2023/02/10 07:37:47;;;;;;;81.93;43.43;;;1.10;99.90;;;;;;5053027;28;20763;-72
2023/02/10 07:40:14;;;;;;;57.70;36.87;;;1.10;99.90;;;;;;5054183;28;20478;-72
2023/02/10 07:42:41;;;;;;;110.87;53.50;;;1.10;99.90;;;;;;5050440;28;20513;-73
2023/02/10 07:45:08;;;;;;;87.47;45.30;;;1.10;99.90;;;;;;5055972;28;21061;-73
2023/02/10 07:47:35;;;;;;;83.20;45.60;;;1.20;99.90;;;;;;5053377;28;20513;-71
2023/02/10 07:50:03;;;;;;;65.17;37.10;;;1.20;99.90;;;;;;5052988;28;20872;-72
2023/02/10 07:52:29;;;;;;;69.27;39.80;;;1.20;99.90;;;;;;5053021;28;20467;-72
2023/02/10 07:54:58;;;;;;;68.40;39.90;;;1.30;99.90;;;;;;5050106;28;20493;-70
2023/02/10 07:57:25;;;;;;;61.87;35.80;;;1.30;99.90;;;;;;5048915;28;20468;-73
2023/02/10 07:59:52;;;;;;;68.17;39.07;;;1.30;99.90;;;;;;5053071;28;20455;-70
2023/02/10 08:02:19;;;;;;;59.00;35.60;;;1.30;99.90;;;;;;5066259;28;20487;-70
2023/02/10 08:04:46;;;;;;;68.57;35.57;;;1.30;99.90;;;;;;5052794;28;20972;-70
2023/02/10 08:07:13;;;;;;;65.93;36.97;;;1.40;99.90;;;;;;5054494;28;20587;-71
2023/02/10 08:09:40;;;;;;;69.37;38.00;;;1.40;99.90;;;;;;5050091;28;21079;-70
2023/02/10 08:12:09;;;;;;;64.03;37.03;;;1.40;99.90;;;;;;5053798;28;20522;-69
2023/02/10 08:14:36;;;;;;;63.93;39.20;;;1.40;99.90;;;;;;5055782;28;20458;-72
2023/02/10 08:17:03;;;;;;;72.87;39.90;;;1.50;99.90;;;;;;5060833;28;20459;-72
2023/02/10 08:19:30;;;;;;;62.97;38.47;;;1.40;99.90;;;;;;5050221;28;20463;-70
2023/02/10 08:21:56;;;;;;;59.47;37.40;;;1.50;99.90;;;;;;5036205;28;20470;-70
2023/02/10 08:24:24;;;;;;;70.03;41.20;;;1.60;99.90;;;;;;5049491;28;20963;-71
2023/02/10 08:26:51;;;;;;;65.47;42.07;;;1.70;99.90;;;;;;5047387;28;20484;-69
2023/02/10 08:29:19;;;;;;;65.37;42.03;;;1.80;99.90;;;;;;5060464;28;20463;-72
2023/02/10 08:31:49;;;;;;;74.43;44.13;;;1.80;99.90;;;;;;5062327;28;20765;-69
2023/02/10 08:34:17;;;;;;;67.10;39.83;;;1.90;99.90;;;;;;5049942;28;20817;-70
2023/02/10 08:36:44;;;;;;;70.27;42.20;;;2.10;99.90;;;;;;5052831;28;20822;-72
2023/02/10 08:39:11;;;;;;;86.90;44.60;;;2.30;99.90;;;;;;5050546;28;21021;-72
2023/02/10 08:41:39;;;;;;;74.50;43.50;;;2.50;99.90;;;;;;5046590;28;20600;-69
2023/02/10 08:44:06;;;;;;;78.70;44.07;;;2.70;99.90;;;;;;5042643;28;20468;-69
2023/02/10 08:46:35;;;;;;;70.70;42.37;;;2.80;99.90;;;;;;5037504;28;20494;-70
2023/02/10 08:49:02;;;;;;;65.87;39.90;;;2.90;99.90;;;;;;5033742;28;20468;-69
2023/02/10 08:51:30;;;;;;;70.73;42.70;;;3.10;99.90;;;;;;5028991;28;21163;-71
2023/02/10 08:53:56;;;;;;;67.00;41.33;;;3.20;99.90;;;;;;5039176;28;20470;-69
2023/02/10 08:56:24;;;;;;;76.00;40.13;;;3.50;99.90;;;;;;5046283;28;20464;-69
2023/02/10 08:58:51;;;;;;;70.27;41.77;;;3.60;99.90;;;;;;5040888;28;20475;-70
2023/02/10 09:01:19;;;;;;;73.43;42.73;;;3.80;99.90;;;;;;5039983;28;20483;-70
2023/02/10 09:03:48;;;;;;;69.60;41.07;;;3.90;99.90;;;;;;5046686;28;20723;-69
2023/02/10 09:06:17;;;;;;;71.20;41.23;;;3.90;99.90;;;;;;5040160;28;20866;-71
2023/02/10 09:08:46;;;;;;;77.20;40.50;;;4.00;99.90;;;;;;5037853;28;20459;-71
2023/02/10 09:11:12;;;;;;;77.33;42.33;;;4.10;99.90;;;;;;5042193;28;20477;-72
2023/02/10 09:13:39;;;;;;;72.43;42.80;;;4.10;99.90;;;;;;5042662;28;21128;-71
2023/02/10 09:16:06;;;;;;;83.60;43.00;;;4.10;99.90;;;;;;5039581;28;20837;-71
2023/02/10 09:18:33;;;;;;;86.63;41.20;;;4.30;99.90;;;;;;5045239;28;20469;-72
2023/02/10 09:21:02;;;;;;;69.00;38.07;;;4.30;99.90;;;;;;5042221;28;20463;-69
2023/02/10 09:23:29;;;;;;;75.73;38.70;;;4.40;99.90;;;;;;5046308;28;20827;-70
2023/02/10 09:25:57;;;;;;;77.33;40.37;;;4.40;99.90;;;;;;5030325;28;21003;-70
2023/02/10 09:28:24;;;;;;;69.20;36.73;;;4.40;99.90;;;;;;5038036;28;20853;-72
2023/02/10 09:30:51;;;;;;;74.67;38.77;;;4.60;99.90;;;;;;5038735;28;20463;-71
2023/02/10 09:33:17;;;;;;;66.70;40.20;;;4.60;99.90;;;;;;5046615;28;20460;-72
2023/02/10 09:35:44;;;;;;;76.87;40.83;;;4.70;99.90;;;;;;5033791;28;20468;-71
2023/02/10 09:38:13;;;;;;;74.17;41.17;;;4.90;99.90;;;;;;5039419;28;20470;-71
2023/02/10 09:40:50;;;;;;;74.40;41.40;;;5.10;99.90;;;;;;5034360;28;20840;-72
2023/02/10 09:43:28;;;;;;;72.80;42.40;;;5.30;99.90;;;;;;5041398;28;20546;-73
2023/02/10 09:46:03;;;;;;;78.87;40.30;;;5.40;99.90;;;;;;5033940;28;20569;-69
2023/02/10 09:48:41;;;;;;;81.37;41.73;;;5.40;99.90;;;;;;5032741;28;20464;-70
2023/02/10 09:51:16;;;;;;;69.57;42.20;;;5.50;99.90;;;;;;5037338;28;21173;-73
2023/02/10 09:53:45;;;;;;;73.93;43.20;;;5.50;99.90;;;;;;5037225;28;20470;-71
2023/02/10 09:56:18;;;;;;;73.67;41.53;;;5.50;99.90;;;;;;5027783;28;20472;-70
2023/02/10 09:58:49;;;;;;;73.03;42.03;;;5.40;99.90;;;;;;5036173;28;20455;-70
2023/02/10 10:01:19;;;;;;;83.43;46.70;;;5.40;99.90;;;;;;5033557;28;20461;-70
2023/02/10 10:03:50;;;;;;;77.43;44.27;;;5.40;99.90;;;;;;5040512;28;20867;-72
2023/02/10 10:06:24;;;;;;;86.03;44.83;;;5.30;99.90;;;;;;5034879;28;20499;-70
2023/02/10 10:09:02;;;;;;;73.47;43.17;;;5.30;99.90;;;;;;5036858;28;20469;-71
2023/02/10 10:11:38;;;;;;;76.17;45.17;;;5.40;99.90;;;;;;5033063;28;20479;-71
2023/02/10 10:14:06;;;;;;;68.70;44.73;;;5.40;99.90;;;;;;5034503;28;20470;-71
2023/02/10 10:17:02;;;;;;;79.87;46.57;;;5.50;99.90;;;;;;5028986;28;20973;-71
2023/02/10 10:19:36;;;;;;;82.53;45.63;;;5.60;99.90;;;;;;5033337;28;20470;-73
2023/02/10 10:22:13;;;;;;;76.40;46.27;;;5.60;99.90;;;;;;5031333;28;20467;-70
2023/02/10 10:25:07;;;;;;;88.90;48.90;;;5.60;99.90;;;;;;5036341;28;21141;-73
2023/02/10 10:27:46;;;;;;;71.50;46.90;;;5.70;99.90;;;;;;5036242;28;20485;-73
2023/02/10 10:30:17;;;;;;;78.07;46.40;;;5.70;99.90;;;;;;5039918;28;21038;-72
2023/02/10 10:32:47;;;;;;;78.20;46.43;;;5.80;99.90;;;;;;5033641;28;20455;-70
2023/02/10 10:35:18;;;;;;;72.80;47.37;;;5.90;99.90;;;;;;5025011;28;20633;-70
2023/02/10 10:37:46;;;;;;;74.00;45.50;;;6.00;99.90;;;;;;5031828;28;20471;-71
2023/02/10 10:40:20;;;;;;;86.07;47.90;;;6.00;99.90;;;;;;5029043;28;20465;-71
2023/02/10 10:42:49;;;;;;;75.80;47.47;;;6.10;99.90;;;;;;5048707;28;20501;-70
2023/02/10 10:45:21;;;;;;;75.70;46.70;;;6.20;99.90;;;;;;5053506;28;20758;-71
2023/02/10 10:47:53;;;;;;;75.83;47.17;;;6.20;99.90;;;;;;5059155;28;20502;-72
2023/02/10 10:50:24;;;;;;;83.73;50.53;;;6.50;99.90;;;;;;5056959;28;20546;-71
2023/02/10 10:52:52;;;;;;;69.33;45.00;;;7.00;99.90;;;;;;5052426;28;20462;-70
2023/02/10 10:55:25;;;;;;;79.00;44.50;;;7.70;99.90;;;;;;5047624;28;20474;-68
2023/02/10 10:57:54;;;;;;;71.37;44.80;;;8.10;99.90;;;;;;5050017;28;20490;-70
2023/02/10 11:00:24;;;;;;;74.83;44.93;;;8.20;99.90;;;;;;5053724;28;20593;-70
2023/02/10 11:02:57;;;;;;;68.90;45.77;;;8.50;99.90;;;;;;5055503;28;20563;-70
2023/02/10 11:05:29;;;;;;;55.10;42.20;;;8.90;99.90;;;;;;5057253;28;20811;-68
2023/02/10 11:07:57;;;;;;;59.33;41.30;;;8.90;99.90;;;;;;5049239;28;20499;-70
2023/02/10 11:10:31;;;;;;;62.90;41.20;;;8.90;99.90;;;;;;5050574;28;21006;-69
2023/02/10 11:13:01;;;;;;;52.37;41.80;;;9.20;99.90;;;;;;5054852;28;20468;-71
2023/02/10 11:15:40;;;;;;;55.87;39.30;;;9.60;99.90;;;;;;5054526;28;20868;-72
2023/02/10 11:18:16;;;;;;;48.07;38.60;;;9.50;99.90;;;;;;5053414;28;20884;-70
2023/02/10 11:20:54;;;;;;;62.90;41.13;;;9.30;99.90;;;;;;5056686;28;20463;-71
2023/02/10 11:23:22;;;;;;;54.73;39.03;;;9.30;99.90;;;;;;5056064;28;20887;-71
2023/02/10 11:25:58;;;;;;;62.40;40.20;;;9.20;99.90;;;;;;5050082;28;20913;-72
2023/02/10 11:28:27;;;;;;;52.83;40.10;;;9.40;99.90;;;;;;5045076;28;20474;-70
2023/02/10 11:31:00;;;;;;;51.63;36.30;;;9.60;99.90;;;;;;5050586;28;20978;-70
2023/02/10 11:33:30;;;;;;;48.73;39.10;;;9.80;99.90;;;;;;5059463;28;20466;-72
2023/02/10 11:36:02;;;;;;;52.00;38.27;;;9.70;99.90;;;;;;5050340;28;20470;-71
2023/02/10 11:38:29;;;;;;;56.40;39.57;;;9.80;99.90;;;;;;5053739;28;20813;-71
2023/02/10 11:41:00;;;;;;;59.07;41.73;;;9.80;99.90;;;;;;5042254;28;20452;-72
2023/02/10 11:43:30;;;;;;;64.13;40.23;;;10.20;99.90;;;;;;5053620;28;20451;-72
2023/02/10 11:46:00;;;;;;;52.63;39.70;;;10.40;99.90;;;;;;5049686;28;20506;-72
2023/02/10 11:48:28;;;;;;;46.37;37.60;;;10.50;99.90;;;;;;5052562;28;20609;-72
2023/02/10 11:51:04;;;;;;;50.93;40.33;;;10.70;99.90;;;;;;5055192;28;20458;-69
2023/02/10 11:53:33;;;;;;;52.73;39.50;;;11.00;99.90;;;;;;5060291;28;20485;-71
2023/02/10 11:56:05;;;;;;;47.73;37.47;;;11.20;99.90;;;;;;5051320;28;20512;-70
2023/02/10 11:59:01;;;;;;;47.50;38.10;;;11.30;99.90;;;;;;5055571;28;20462;-70
2023/02/10 12:01:44;;;;;;;87.80;39.50;;;11.50;99.90;;;;;;5050601;28;20478;-70
2023/02/10 12:04:26;;;;;;;46.43;35.77;;;11.60;99.90;;;;;;5051981;28;20518;-69
2023/02/10 12:06:58;;;;;;;47.53;36.77;;;11.10;99.90;;;;;;5055161;28;21253;-71
2023/02/10 12:09:30;;;;;;;48.30;37.20;;;11.10;99.90;;;;;;5048090;28;20556;-70
2023/02/10 12:12:07;;;;;;;55.73;38.07;;;11.10;99.90;;;;;;5053687;28;20462;-69
2023/02/10 12:14:49;;;;;;;47.43;37.20;;;11.20;99.90;;;;;;5048354;28;20459;-72
2023/02/10 12:17:26;;;;;;;50.17;39.33;;;11.50;99.90;;;;;;5059193;28;20844;-71
2023/02/10 12:20:03;;;;;;;55.43;37.47;;;11.60;99.90;;;;;;5060881;28;20462;-71
2023/02/10 12:22:35;;;;;;;44.93;35.43;;;11.20;99.90;;;;;;5055263;28;20515;-72
2023/02/10 12:25:14;;;;;;;40.67;34.33;;;11.10;99.90;;;;;;5056246;28;20916;-72
2023/02/10 12:28:01;;;;;;;43.57;36.30;;;11.10;99.90;;;;;;5053972;28;20582;-68
2023/02/10 12:30:39;;;;;;;45.33;35.97;;;11.30;99.90;;;;;;5055348;28;20819;-70
2023/02/10 12:33:24;;;;;;;39.20;34.73;;;11.50;99.90;;;;;;5059682;28;20454;-70
2023/02/10 12:36:00;;;;;;;39.23;34.43;;;11.30;99.90;;;;;;5051451;28;20828;-72
2023/02/10 12:38:47;;;;;;;42.73;34.73;;;11.40;99.90;;;;;;5059373;28;20467;-70
2023/02/10 12:41:23;;;;;;;41.70;35.30;;;11.70;99.90;;;;;;5052788;28;21175;-71
2023/02/10 12:44:03;;;;;;;33.63;30.53;;;11.30;99.90;;;;;;5054542;28;20543;-70
2023/02/10 12:46:37;;;;;;;37.80;33.63;;;10.80;99.90;;;;;;5051169;28;20471;-70
2023/02/10 12:49:16;;;;;;;36.90;32.90;;;10.80;99.90;;;;;;5057212;28;20515;-70
2023/02/10 12:51:55;;;;;;;40.10;32.60;;;11.10;99.90;;;;;;5053413;28;21227;-73